Time;durP1;ratioP1;P1;durP2;ratioP2;P2;SDS_P1;SDS_P2;PMS_P1;PMS_P2;Temp;Humidity;BMP_temperature;BMP_pressure;BME280_temperature;BME280_humidity;BME280_pressure;Samples;Min_cycle;Max_cycle;Signal;HPM_P1;HPM_P2
2022/08/03 00:01:16;;;;;;;22.15;10.70;;;;;;;20.80;78.37;101420.16;5108529;28;20478;-60
2022/08/03 00:03:41;;;;;;;20.70;10.55;;;;;;;20.71;78.59;101404.25;5091163;28;20051;-60
2022/08/03 00:06:06;;;;;;;21.45;10.80;;;;;;;20.69;78.57;101403.00;5108203;28;20479;-60
2022/08/03 00:08:32;;;;;;;21.90;11.27;;;;;;;20.55;79.22;101390.19;5092304;28;20051;-60
2022/08/03 00:10:57;;;;;;;21.10;11.38;;;;;;;20.65;79.02;101405.72;5092182;28;20480;-60
2022/08/03 00:13:22;;;;;;;21.45;11.50;;;;;;;20.64;79.27;101415.31;5107825;28;20549;-61
2022/08/03 00:15:49;;;;;;;20.50;11.77;;;;;;;20.62;79.71;101412.06;5091048;28;20467;-61
2022/08/03 00:18:14;;;;;;;21.55;11.77;;;;;;;20.54;80.54;101416.69;5091201;28;20024;-60
2022/08/03 00:20:39;;;;;;;22.48;11.70;;;;;;;20.53;80.58;101415.06;5091277;28;20069;-61
2022/08/03 00:23:05;;;;;;;19.75;10.90;;;;;;;20.45;80.74;101407.59;5108089;28;20402;-60
2022/08/03 00:25:31;;;;;;;21.30;11.35;;;;;;;20.33;81.19;101402.06;5107404;28;20020;-61
2022/08/03 00:27:56;;;;;;;21.90;11.05;;;;;;;20.34;80.30;101395.25;5089714;28;20023;-61
2022/08/03 00:30:22;;;;;;;20.33;11.10;;;;;;;20.30;81.45;101402.75;5090440;28;20024;-61
2022/08/03 00:32:47;;;;;;;22.30;11.15;;;;;;;20.30;82.09;101397.97;5090501;28;20122;-61
2022/08/03 00:35:13;;;;;;;19.60;11.35;;;;;;;20.17;81.88;101380.34;5090889;28;20368;-61
2022/08/03 00:37:38;;;;;;;21.27;11.15;;;;;;;20.27;82.41;101401.50;5090425;28;20472;-61
2022/08/03 00:40:04;;;;;;;20.33;11.98;;;;;;;20.30;82.22;101400.78;5107682;28;20324;-61
2022/08/03 00:42:29;;;;;;;20.20;11.60;;;;;;;20.20;82.49;101393.69;5090585;28;20050;-61
2022/08/03 00:44:54;;;;;;;22.48;11.52;;;;;;;20.26;81.79;101397.06;5107621;28;20183;-61
2022/08/03 00:47:20;;;;;;;20.65;11.20;;;;;;;20.21;82.48;101397.31;5108040;28;20063;-61
2022/08/03 00:49:45;;;;;;;21.50;11.18;;;;;;;20.13;83.11;101399.13;5107674;28;20027;-60
2022/08/03 00:52:14;;;;;;;19.30;10.63;;;;;;;20.14;82.72;101394.31;5090083;28;20026;-59
2022/08/03 00:54:39;;;;;;;20.70;11.90;;;;;;;19.99;82.18;101379.03;5107475;28;20444;-61
2022/08/03 00:57:06;;;;;;;22.95;11.10;;;;;;;20.10;82.71;101392.22;5090002;28;20035;-61
2022/08/03 00:59:31;;;;;;;20.27;11.38;;;;;;;20.05;82.50;101394.47;5107721;28;20115;-61
2022/08/03 01:01:57;;;;;;;20.67;11.52;;;;;;;19.88;83.34;101376.78;5090518;28;20067;-61
2022/08/03 01:04:22;;;;;;;19.83;11.25;;;;;;;19.98;83.01;101385.84;5091634;28;20020;-60
2022/08/03 01:06:54;;;;;;;20.23;10.90;;;;;;;19.98;82.36;101388.66;5090228;28;20025;-61
2022/08/03 01:09:39;;;;;;;22.58;11.30;;;;;;;19.87;82.14;101369.53;5090108;28;20119;-60
2022/08/03 01:12:21;;;;;;;20.75;11.57;;;;;;;19.98;81.72;101385.84;5107204;28;20092;-60
2022/08/03 01:14:57;;;;;;;22.55;11.32;;;;;;;19.89;83.01;101377.56;5090343;28;20024;-60
2022/08/03 01:17:31;;;;;;;21.83;10.98;;;;;;;19.80;83.85;101384.13;5107417;28;20039;-61
2022/08/03 01:20:08;;;;;;;21.20;11.68;;;;;;;19.79;83.17;101381.66;5107380;28;20031;-61
2022/08/03 01:22:59;;;;;;;22.40;10.70;;;;;;;19.75;83.07;101370.31;5107731;28;20047;-61
2022/08/03 01:25:46;;;;;;;20.35;11.00;;;;;;;19.70;83.69;101381.00;5090538;28;20028;-60
2022/08/03 01:28:17;;;;;;;23.27;11.38;;;;;;;19.55;84.66;101357.31;5090716;28;20039;-61
2022/08/03 01:30:44;;;;;;;21.75;11.10;;;;;;;19.40;85.38;101344.84;5090480;28;20126;-60
2022/08/03 01:33:19;;;;;;;21.02;11.57;;;;;;;19.59;85.23;101380.69;5090014;28;20024;-61
2022/08/03 01:35:53;;;;;;;21.80;11.10;;;;;;;19.59;85.28;101381.50;5090179;28;20127;-61
2022/08/03 01:38:26;;;;;;;20.77;11.05;;;;;;;19.56;85.78;101384.19;5108848;28;20039;-60
2022/08/03 01:40:53;;;;;;;21.25;10.93;;;;;;;19.54;85.71;101383.75;5095337;28;20093;-60
2022/08/03 01:43:22;;;;;;;22.50;11.50;;;;;;;19.51;86.68;101378.84;5093205;28;20437;-60
2022/08/03 01:45:49;;;;;;;21.83;10.32;;;;;;;19.44;86.21;101373.81;5093867;28;20432;-61
2022/08/03 01:48:17;;;;;;;22.25;11.07;;;;;;;19.41;86.39;101372.56;5093561;28;20119;-60
2022/08/03 01:50:45;;;;;;;22.77;10.27;;;;;;;19.38;85.54;101370.44;5110411;28;20372;-60
2022/08/03 01:53:14;;;;;;;21.60;10.20;;;;;;;19.22;86.39;101342.34;5093857;28;20028;-60
2022/08/03 01:55:42;;;;;;;20.67;10.80;;;;;;;19.41;85.41;101377.34;5093187;28;20058;-61
2022/08/03 01:58:07;;;;;;;22.58;10.63;;;;;;;19.39;86.58;101374.88;5110619;28;20463;-60
2022/08/03 02:00:37;;;;;;;20.85;10.23;;;;;;;19.24;86.61;101356.00;5093454;28;20026;-61
2022/08/03 02:03:05;;;;;;;21.77;10.52;;;;;;;19.13;86.44;101338.81;5093339;28;20020;-60
2022/08/03 02:05:32;;;;;;;23.65;11.07;;;;;;;19.20;86.93;101349.44;5110841;28;20054;-61
2022/08/03 02:07:59;;;;;;;21.10;9.88;;;;;;;19.27;87.29;101370.13;5110514;28;20024;-61
2022/08/03 02:10:27;;;;;;;23.40;10.82;;;;;;;19.21;87.94;101357.53;5093103;28;20490;-60
2022/08/03 02:12:53;;;;;;;19.60;10.20;;;;;;;19.23;87.98;101368.38;5093539;28;20367;-60
2022/08/03 02:15:21;;;;;;;19.20;9.90;;;;;;;19.06;88.46;101347.84;5110398;28;20056;-60
2022/08/03 02:17:47;;;;;;;21.98;10.25;;;;;;;19.08;88.43;101356.69;5093536;28;20071;-61
2022/08/03 02:20:14;;;;;;;20.75;10.45;;;;;;;19.07;88.59;101352.28;5092869;28;20078;-61
2022/08/03 02:22:41;;;;;;;21.40;10.50;;;;;;;19.14;88.21;101365.69;5110550;28;20044;-61
2022/08/03 02:25:11;;;;;;;21.40;10.35;;;;;;;18.94;88.79;101340.25;5093446;28;20028;-60
2022/08/03 02:27:41;;;;;;;21.63;10.70;;;;;;;18.99;88.92;101351.22;5110222;28;20024;-61
2022/08/03 02:30:09;;;;;;;21.25;10.75;;;;;;;18.96;89.75;101357.53;5093345;28;20031;-61
2022/08/03 02:32:39;;;;;;;20.63;10.63;;;;;;;18.98;90.39;101357.19;5093140;28;20028;-60
2022/08/03 02:35:08;;;;;;;20.67;10.35;;;;;;;18.79;90.51;101338.13;5092588;28;20360;-60
2022/08/03 02:37:40;;;;;;;20.48;10.02;;;;;;;18.93;90.37;101352.66;5109722;28;20181;-60
2022/08/03 02:40:08;;;;;;;22.58;10.40;;;;;;;18.95;90.55;101355.09;5092843;28;20020;-61
2022/08/03 02:42:35;;;;;;;21.58;10.60;;;;;;;18.91;90.69;101352.16;5109141;28;20420;-60
2022/08/03 02:45:04;;;;;;;22.20;10.88;;;;;;;18.78;90.18;101330.88;5092008;28;20047;-60
2022/08/03 02:47:31;;;;;;;21.67;10.98;;;;;;;18.85;90.79;101339.50;5091663;28;20038;-60
2022/08/03 02:49:58;;;;;;;21.08;10.95;;;;;;;18.84;91.31;101346.31;5108112;28;20024;-60
2022/08/03 02:52:28;;;;;;;21.77;10.95;;;;;;;18.81;91.23;101341.41;5092380;28;20028;-60
2022/08/03 02:54:58;;;;;;;21.30;10.65;;;;;;;18.83;91.24;101350.28;5092573;28;20024;-61
2022/08/03 02:57:26;;;;;;;22.50;11.32;;;;;;;18.73;90.62;101329.13;5092278;28;20020;-61
2022/08/03 02:59:53;;;;;;;22.13;11.13;;;;;;;18.81;91.21;101347.00;5091855;28;20028;-60
2022/08/03 03:02:19;;;;;;;21.75;10.20;;;;;;;18.81;91.13;101347.00;5092130;28;20037;-60
2022/08/03 03:04:46;;;;;;;21.05;10.60;;;;;;;18.79;91.24;101343.72;5109070;28;20035;-61
2022/08/03 03:07:13;;;;;;;20.40;10.73;;;;;;;18.76;91.66;101345.25;5092194;28;20024;-60
2022/08/03 03:09:39;;;;;;;22.63;10.57;;;;;;;18.75;91.29;101348.41;5108884;28;20081;-60
2022/08/03 03:12:08;;;;;;;20.17;10.35;;;;;;;18.74;91.02;101349.59;5091897;28;20032;-61
2022/08/03 03:14:35;;;;;;;21.05;10.38;;;;;;;18.73;91.57;101342.34;5091679;28;20466;-61
2022/08/03 03:17:02;;;;;;;22.45;11.05;;;;;;;18.65;91.87;101341.28;5092182;28;20034;-60
2022/08/03 03:19:29;;;;;;;20.88;10.35;;;;;;;18.64;91.75;101343.28;5092274;28;20118;-61
2022/08/03 03:21:57;;;;;;;22.33;11.05;;;;;;;18.68;91.80;101354.59;5108676;28;20092;-61
2022/08/03 03:24:22;;;;;;;19.48;10.35;;;;;;;18.64;92.43;101348.03;5092310;28;20024;-61
2022/08/03 03:26:48;;;;;;;22.40;10.68;;;;;;;18.55;92.14;101334.16;5109484;28;20035;-61
2022/08/03 03:29:14;;;;;;;21.17;11.13;;;;;;;18.64;92.46;101356.44;5108735;28;20074;-61
2022/08/03 03:31:40;;;;;;;21.23;10.60;;;;;;;18.64;92.03;101348.03;5091421;28;20439;-60
2022/08/03 03:34:06;;;;;;;22.67;10.80;;;;;;;18.62;92.50;101344.75;5091785;28;20032;-61
2022/08/03 03:36:31;;;;;;;20.67;10.90;;;;;;;18.41;92.74;101320.50;5108965;28;20028;-61
2022/08/03 03:38:56;;;;;;;20.38;10.63;;;;;;;18.44;92.72;101324.56;5091944;28;20024;-61
2022/08/03 03:41:22;;;;;;;21.85;10.63;;;;;;;18.51;92.29;101333.22;5108306;28;20479;-61
2022/08/03 03:43:49;;;;;;;20.98;10.77;;;;;;;18.47;92.83;101338.69;5107630;28;20475;-61
2022/08/03 03:46:14;;;;;;;21.85;10.93;;;;;;;18.52;93.13;101349.66;5091117;28;20111;-61
2022/08/03 03:48:40;;;;;;;19.40;10.52;;;;;;;18.33;93.17;101330.63;5091060;28;20107;-61
2022/08/03 03:51:06;;;;;;;21.83;11.43;;;;;;;18.45;93.16;101351.44;5107854;28;20028;-60
2022/08/03 03:53:31;;;;;;;22.42;11.57;;;;;;;18.39;93.65;101348.84;5108363;28;20054;-61
2022/08/03 03:55:56;;;;;;;20.65;11.18;;;;;;;18.32;93.86;101342.19;5091735;28;20035;-61
2022/08/03 03:58:22;;;;;;;21.58;10.68;;;;;;;18.32;93.94;101343.00;5090827;28;20020;-61
2022/08/03 04:00:48;;;;;;;20.08;11.02;;;;;;;18.22;93.84;101329.44;5090779;28;20402;-61
2022/08/03 04:03:14;;;;;;;21.73;10.80;;;;;;;18.31;93.90;101349.75;5090743;28;20414;-61
2022/08/03 04:11:21;;;;;;;19.85;11.63;;;;;;;18.28;93.99;101339.25;5092807;28;20035;-61
2022/08/03 04:13:53;;;;;;;21.48;11.93;;;;;;;18.21;93.95;101339.84;5108215;28;20027;-61
2022/08/03 04:16:23;;;;;;;19.75;11.38;;;;;;;18.27;93.59;101342.41;5090832;28;20035;-61
2022/08/03 04:18:54;;;;;;;23.33;11.60;;;;;;;18.26;93.89;101337.97;5091248;28;20052;-61
2022/08/03 04:21:22;;;;;;;23.50;11.40;;;;;;;18.24;94.00;101349.50;5091130;28;20531;-61
2022/08/03 04:23:50;;;;;;;21.40;12.00;;;;;;;18.21;93.80;101353.00;5107708;28;20039;-61
2022/08/03 04:26:20;;;;;;;22.00;11.85;;;;;;;18.21;94.07;101347.41;5107802;28;20039;-61
2022/08/03 04:28:48;;;;;;;22.23;12.00;;;;;;;18.24;93.67;101347.53;5107783;28;20039;-60
2022/08/03 04:31:15;;;;;;;21.73;11.23;;;;;;;18.23;93.35;101345.88;5090853;28;20455;-61
2022/08/03 04:33:43;;;;;;;21.20;10.90;;;;;;;18.30;93.54;101348.13;5091087;28;20043;-61
2022/08/03 04:36:12;;;;;;;21.83;11.57;;;;;;;18.19;93.28;101333.75;5091350;28;20021;-61
2022/08/03 04:38:50;;;;;;;19.55;11.07;;;;;;;18.31;92.73;101344.16;5091165;28;20036;-60
2022/08/03 04:41:17;;;;;;;19.92;11.10;;;;;;;18.37;92.84;101351.16;5107658;28;20055;-60
2022/08/03 04:43:43;;;;;;;23.27;11.10;;;;;;;18.40;92.71;101355.28;5090286;28;20507;-60
2022/08/03 04:46:09;;;;;;;19.30;10.73;;;;;;;18.38;92.15;101350.00;5090159;28;20085;-60
2022/08/03 04:48:35;;;;;;;22.30;11.75;;;;;;;18.45;92.19;101352.22;5107261;28;20036;-60
2022/08/03 04:51:03;;;;;;;21.92;10.73;;;;;;;18.47;92.03;101360.28;5090652;28;20351;-60
2022/08/03 04:53:28;;;;;;;21.45;10.65;;;;;;;18.53;91.42;101368.13;5090539;28;20161;-60
2022/08/03 04:55:53;;;;;;;21.65;10.55;;;;;;;18.54;91.27;101354.94;5090647;28;20064;-60
2022/08/03 04:58:19;;;;;;;23.63;10.52;;;;;;;18.60;91.35;101364.75;5090670;28;20031;-60
2022/08/03 05:00:44;;;;;;;21.25;11.02;;;;;;;18.63;91.02;101366.84;5107208;28;20020;-60
2022/08/03 05:03:10;;;;;;;21.13;11.38;;;;;;;18.66;90.99;101368.13;5090204;28;20111;-60
2022/08/03 05:05:35;;;;;;;22.10;10.77;;;;;;;18.67;90.80;101355.75;5090686;28;20025;-60
2022/08/03 05:08:00;;;;;;;20.58;10.80;;;;;;;18.66;90.65;101362.53;5091215;28;20028;-60
2022/08/03 05:10:26;;;;;;;22.48;11.32;;;;;;;18.69;90.67;101375.84;5090821;28;20024;-62
2022/08/03 05:12:52;;;;;;;21.33;11.35;;;;;;;18.73;90.97;101370.38;5091633;28;20413;-62
2022/08/03 05:15:18;;;;;;;20.42;11.43;;;;;;;18.78;90.40;101373.75;5094384;28;20071;-60
2022/08/03 05:17:43;;;;;;;22.05;11.25;;;;;;;18.76;89.97;101376.09;5094116;28;20468;-60
2022/08/03 05:20:09;;;;;;;20.48;10.93;;;;;;;18.70;89.81;101346.66;5094255;28;20080;-60
2022/08/03 05:22:34;;;;;;;22.95;11.15;;;;;;;18.86;89.71;101381.22;5093956;28;20020;-60
2022/08/03 05:25:01;;;;;;;22.92;11.68;;;;;;;18.84;89.45;101380.75;5111285;28;20168;-61
2022/08/03 05:27:26;;;;;;;18.73;10.48;;;;;;;18.92;89.72;101380.97;5093969;28;20031;-60
2022/08/03 05:29:51;;;;;;;22.98;11.07;;;;;;;18.98;89.24;101379.63;5110988;28;20020;-60
2022/08/03 05:32:17;;;;;;;19.15;10.50;;;;;;;18.88;88.65;101361.25;5093846;28;20443;-61
2022/08/03 05:34:43;;;;;;;19.23;10.48;;;;;;;19.10;88.45;101385.22;5111170;28;20369;-60
2022/08/03 05:37:08;;;;;;;21.63;11.13;;;;;;;19.17;87.85;101381.81;5094469;28;20028;-60
2022/08/03 05:39:34;;;;;;;20.98;10.98;;;;;;;19.13;87.52;101372.47;5094190;28;20028;-60
2022/08/03 05:42:00;;;;;;;20.75;11.07;;;;;;;19.31;86.99;101382.28;5094380;28;20020;-60
2022/08/03 05:44:25;;;;;;;20.30;11.27;;;;;;;19.35;86.87;101389.97;5110170;28;20144;-60
2022/08/03 05:46:51;;;;;;;18.85;11.00;;;;;;;19.38;86.50;101392.09;5093713;28;20081;-60
2022/08/03 05:49:17;;;;;;;22.13;11.30;;;;;;;19.46;86.39;101393.94;5093361;28;20048;-60
2022/08/03 05:51:43;;;;;;;21.48;11.10;;;;;;;19.52;86.12;101400.91;5093313;28;20032;-60
2022/08/03 05:54:08;;;;;;;20.10;10.80;;;;;;;19.58;85.87;101395.88;5110186;28;20039;-60
2022/08/03 05:56:34;;;;;;;22.42;11.27;;;;;;;19.61;85.92;101395.19;5110499;28;20032;-60
2022/08/03 05:58:59;;;;;;;23.83;11.55;;;;;;;19.52;85.92;101372.84;5110776;28;20031;-60
2022/08/03 06:01:24;;;;;;;20.55;11.73;;;;;;;19.69;85.70;101391.41;5093691;28;20414;-60
2022/08/03 06:03:51;;;;;;;20.92;11.43;;;;;;;19.69;85.30;101377.38;5093619;28;20028;-60
2022/08/03 06:06:17;;;;;;;23.58;11.95;;;;;;;19.74;84.43;101381.91;5093764;28;20047;-59
2022/08/03 06:08:43;;;;;;;22.92;11.23;;;;;;;19.87;84.51;101393.94;5093158;28;20027;-60
2022/08/03 06:11:09;;;;;;;22.75;11.07;;;;;;;19.98;83.22;101397.09;5110228;28;20094;-60
2022/08/03 06:13:35;;;;;;;19.95;10.85;;;;;;;19.90;83.56;101377.22;5092697;28;20030;-59
2022/08/03 06:16:01;;;;;;;20.88;10.90;;;;;;;20.11;83.06;101395.84;5092886;28;20024;-60
2022/08/03 06:18:26;;;;;;;19.77;10.95;;;;;;;20.19;82.76;101397.66;5110199;28;20067;-60
2022/08/03 06:20:52;;;;;;;20.27;10.35;;;;;;;20.28;82.51;101400.31;5093080;28;20032;-60
2022/08/03 06:23:17;;;;;;;19.45;10.48;;;;;;;20.29;82.07;101389.88;5110077;28;20039;-59
2022/08/03 06:25:46;;;;;;;19.77;10.50;;;;;;;20.40;81.71;101394.63;5093064;28;20031;-60
2022/08/03 06:28:13;;;;;;;19.25;10.20;;;;;;;20.50;81.29;101401.72;5093056;28;20034;-60
2022/08/03 06:30:38;;;;;;;22.30;10.50;;;;;;;20.56;79.86;101389.00;5092610;28;20074;-61
2022/08/03 06:33:04;;;;;;;21.00;10.13;;;;;;;20.60;80.12;101382.69;5093057;28;20028;-60
2022/08/03 06:35:29;;;;;;;22.85;9.98;;;;;;;20.68;78.97;101387.31;5093099;28;20024;-60
2022/08/03 06:37:55;;;;;;;19.33;9.57;;;;;;;20.85;78.72;101397.41;5093063;28;20131;-61
2022/08/03 06:40:28;;;;;;;19.65;9.30;;;;;;;20.88;77.81;101391.88;5093074;28;20039;-60
2022/08/03 06:42:54;;;;;;;22.00;9.80;;;;;;;21.06;76.98;101404.75;5093038;28;20180;-61
2022/08/03 06:45:20;;;;;;;16.73;8.85;;;;;;;21.14;75.58;101403.72;5092168;28;20056;-60
2022/08/03 06:47:45;;;;;;;20.50;9.48;;;;;;;21.05;75.18;101387.03;5092536;28;20025;-61
2022/08/03 06:50:11;;;;;;;19.60;9.05;;;;;;;21.19;75.84;101386.56;5092771;28;20035;-60
2022/08/03 06:52:36;;;;;;;20.38;9.55;;;;;;;21.31;75.17;101402.50;5092883;28;20081;-60
2022/08/03 06:55:02;;;;;;;15.50;8.98;;;;;;;21.41;73.88;101401.91;5092820;28;20089;-60
2022/08/03 06:57:27;;;;;;;17.17;8.88;;;;;;;21.48;73.71;101404.09;5092546;28;20024;-61
2022/08/03 06:59:52;;;;;;;18.38;9.70;;;;;;;21.58;72.98;101411.16;5092371;28;20024;-60
2022/08/03 07:02:18;;;;;;;18.00;9.10;;;;;;;21.61;72.73;101404.78;5092099;28;20024;-61
2022/08/03 07:04:44;;;;;;;17.77;9.00;;;;;;;21.48;72.08;101378.75;5092199;28;20020;-61
2022/08/03 07:07:09;;;;;;;21.45;10.07;;;;;;;21.69;72.29;101406.59;5109047;28;20466;-60
2022/08/03 07:09:35;;;;;;;20.50;8.90;;;;;;;21.75;72.16;101407.94;5091682;28;20036;-62
2022/08/03 07:12:01;;;;;;;21.40;9.55;;;;;;;21.77;71.49;101408.34;5091959;28;20111;-61
2022/08/03 07:14:27;;;;;;;21.75;9.20;;;;;;;21.81;71.03;101412.06;5092105;28;20435;-60
2022/08/03 07:16:52;;;;;;;21.60;9.15;;;;;;;21.87;70.53;101417.44;5092172;28;20026;-61
2022/08/03 07:19:17;;;;;;;19.05;9.35;;;;;;;21.91;70.97;101421.13;5092135;28;20028;-61
2022/08/03 07:21:44;;;;;;;19.52;9.15;;;;;;;21.96;70.67;101418.03;5092114;28;20036;-61
2022/08/03 07:24:09;;;;;;;20.27;9.60;;;;;;;21.91;70.23;101415.50;5092029;28;20031;-61
2022/08/03 07:26:34;;;;;;;20.35;9.27;;;;;;;21.84;70.80;101404.09;5092391;28;20367;-61
2022/08/03 07:29:00;;;;;;;22.95;9.75;;;;;;;21.91;70.64;101410.69;5108817;28;20031;-61
2022/08/03 07:31:26;;;;;;;20.00;9.02;;;;;;;22.09;69.84;101430.75;5091876;28;20383;-61
2022/08/03 07:33:51;;;;;;;22.80;9.35;;;;;;;22.20;69.24;101430.97;5092175;28;20420;-61
2022/08/03 07:36:17;;;;;;;20.52;9.10;;;;;;;22.26;69.39;101423.84;5091471;28;20448;-60
2022/08/03 07:38:42;;;;;;;19.60;8.98;;;;;;;22.30;69.47;101421.09;5091684;28;20042;-60
2022/08/03 07:41:07;;;;;;;21.95;10.00;;;;;;;22.36;69.32;101413.94;5092323;28;20032;-60
2022/08/03 07:43:33;;;;;;;20.83;9.35;;;;;;;22.54;68.51;101421.94;5108286;28;20167;-60
2022/08/03 07:45:58;;;;;;;20.05;9.10;;;;;;;22.61;67.83;101416.47;5093035;28;20035;-61
2022/08/03 07:48:24;;;;;;;21.58;9.48;;;;;;;22.64;67.22;101415.69;5091322;28;20158;-61
2022/08/03 07:50:49;;;;;;;22.67;9.40;;;;;;;22.65;67.08;101406.03;5091325;28;20410;-60
2022/08/03 07:53:15;;;;;;;21.55;9.90;;;;;;;22.74;66.44;101417.09;5091531;28;20119;-59
2022/08/03 07:55:40;;;;;;;22.10;9.43;;;;;;;22.87;65.84;101426.16;5092009;28;20024;-60
2022/08/03 07:58:14;;;;;;;20.55;9.30;;;;;;;22.88;65.94;101416.53;5091736;28;20028;-60
2022/08/03 08:00:39;;;;;;;20.98;9.30;;;;;;;22.87;66.10;101409.25;5092029;28;20118;-60
2022/08/03 08:03:05;;;;;;;21.13;9.75;;;;;;;23.02;65.81;101419.56;5091771;28;20118;-60
2022/08/03 08:05:31;;;;;;;21.83;9.60;;;;;;;23.06;65.22;101425.25;5091521;28;20405;-60
2022/08/03 08:07:56;;;;;;;20.60;9.27;;;;;;;23.10;64.85;101416.84;5091400;28;20104;-60
2022/08/03 08:10:22;;;;;;;20.65;9.40;;;;;;;23.13;64.72;101411.28;5090956;28;20024;-60
2022/08/03 08:12:48;;;;;;;21.50;9.38;;;;;;;23.20;64.65;101419.06;5091710;28;20044;-60
2022/08/03 08:15:13;;;;;;;19.08;9.40;;;;;;;23.25;64.47;101412.25;5091555;28;20028;-60
2022/08/03 08:17:45;;;;;;;22.45;9.68;;;;;;;23.31;64.32;101411.56;5091094;28;20062;-60
2022/08/03 08:20:14;;;;;;;22.60;9.40;;;;;;;23.40;63.73;101410.47;5091390;28;20024;-60
2022/08/03 08:22:40;;;;;;;22.55;9.35;;;;;;;23.47;63.77;101417.03;5091681;28;20118;-60
2022/08/03 08:25:06;;;;;;;21.25;9.48;;;;;;;23.56;63.73;101418.75;5090867;28;20052;-60
2022/08/03 08:27:31;;;;;;;20.05;9.20;;;;;;;23.70;64.03;101406.84;5092005;28;20157;-61
2022/08/03 08:29:57;;;;;;;21.10;9.50;;;;;;;23.70;63.52;101393.56;5091322;28;20024;-60
2022/08/03 08:32:22;;;;;;;20.73;9.65;;;;;;;23.93;62.97;101409.56;5090660;28;20359;-60
2022/08/03 08:34:47;;;;;;;21.83;9.50;;;;;;;24.01;62.52;101414.13;5090531;28;20172;-60
2022/08/03 08:37:13;;;;;;;24.42;10.43;;;;;;;24.06;62.35;101416.63;5090315;28;20028;-60
2022/08/03 08:39:38;;;;;;;20.77;9.60;;;;;;;24.10;62.06;101403.31;5090914;28;20020;-61
2022/08/03 08:42:04;;;;;;;22.50;9.30;;;;;;;24.26;61.07;101413.59;5090742;28;20024;-61
2022/08/03 08:44:29;;;;;;;20.50;9.30;;;;;;;24.34;61.35;101392.69;5090396;28;20048;-61
2022/08/03 08:46:57;;;;;;;20.98;9.25;;;;;;;24.40;59.82;101393.94;5090563;28;20028;-61
2022/08/03 08:49:26;;;;;;;21.35;9.55;;;;;;;24.52;59.96;101406.19;5094557;28;20088;-62
2022/08/03 08:51:53;;;;;;;21.77;10.82;;;;;;;24.48;59.37;101397.69;5094758;28;20036;-62
2022/08/03 08:54:21;;;;;;;22.27;9.75;;;;;;;24.55;58.78;101414.69;5095013;28;20115;-60
2022/08/03 08:56:49;;;;;;;20.67;9.30;;;;;;;24.55;58.31;101403.38;5095240;28;20035;-60
2022/08/03 08:59:15;;;;;;;23.00;10.15;;;;;;;24.64;58.90;101417.22;5095031;28;20111;-61
2022/08/03 09:01:41;;;;;;;23.38;9.90;;;;;;;24.68;57.58;101417.28;5094987;28;20039;-61
2022/08/03 09:04:08;;;;;;;21.58;9.35;;;;;;;24.71;57.32;101397.50;5094934;28;20032;-61
2022/08/03 09:06:34;;;;;;;23.50;9.45;;;;;;;24.72;56.55;101399.13;5094949;28;20032;-61
2022/08/03 09:08:59;;;;;;;25.08;9.15;;;;;;;24.79;56.45;101392.72;5094625;28;20486;-61
2022/08/03 09:11:25;;;;;;;25.73;9.43;;;;;;;24.98;56.23;101397.31;5111901;28;20028;-62
2022/08/03 09:13:50;;;;;;;22.83;9.55;;;;;;;25.14;56.34;101401.84;5094813;28;20140;-61
2022/08/03 09:16:19;;;;;;;20.73;8.55;;;;;;;25.23;56.04;101393.84;5094843;28;20028;-61
2022/08/03 09:18:48;;;;;;;22.80;8.90;;;;;;;25.38;55.33;101401.22;5094166;28;20024;-61
2022/08/03 09:21:30;;;;;;;22.83;8.77;;;;;;;25.49;55.21;101404.13;5093826;28;20020;-61
2022/08/03 09:23:57;;;;;;;20.27;9.15;;;;;;;25.50;54.04;101408.59;5094725;28;20028;-61
2022/08/03 09:26:28;;;;;;;23.15;9.65;;;;;;;25.54;54.19;101403.78;5094344;28;20486;-61
2022/08/03 09:29:10;;;;;;;19.92;8.68;;;;;;;25.67;54.25;101417.56;5094809;28;20064;-61
2022/08/03 09:31:38;;;;;;;22.58;9.63;;;;;;;25.72;53.12;101411.56;5094604;28;20027;-61
2022/08/03 09:34:06;;;;;;;21.08;10.10;;;;;;;25.84;52.83;101424.53;5094571;28;20032;-61
2022/08/03 09:36:44;;;;;;;21.52;9.30;;;;;;;25.93;53.32;101407.97;5111938;28;20372;-60
2022/08/03 09:39:12;;;;;;;20.15;9.07;;;;;;;25.91;52.55;101401.91;5094770;28;20027;-61
2022/08/03 09:41:39;;;;;;;20.20;8.65;;;;;;;26.00;52.36;101402.34;5093947;28;20475;-62
2022/08/03 09:44:05;;;;;;;20.73;8.82;;;;;;;26.11;53.02;101396.75;5093520;28;20391;-62
2022/08/03 09:46:32;;;;;;;21.85;8.60;;;;;;;26.23;52.22;101406.06;5094352;28;20150;-62
2022/08/03 09:49:12;;;;;;;22.88;9.57;;;;;;;26.38;52.85;101404.06;5093196;28;20032;-62
2022/08/03 09:51:39;;;;;;;20.90;8.68;;;;;;;26.51;52.29;101408.16;5093696;28;20491;-61
2022/08/03 09:54:05;;;;;;;21.17;9.02;;;;;;;26.53;50.75;101405.72;5093359;28;20035;-62
2022/08/03 09:56:45;;;;;;;20.08;9.02;;;;;;;26.60;51.68;101404.91;5093120;28;20024;-60
2022/08/03 09:59:21;;;;;;;21.25;8.82;;;;;;;26.67;51.49;101396.41;5092646;28;20074;-60
2022/08/03 10:01:47;;;;;;;23.35;9.32;;;;;;;26.91;51.20;101408.19;5093612;28;20024;-60
2022/08/03 10:04:15;;;;;;;21.00;9.18;;;;;;;27.03;50.21;101402.09;5093331;28;20024;-61
2022/08/03 10:06:59;;;;;;;25.77;9.43;;;;;;;27.18;50.12;101410.59;5092275;28;20035;-60
2022/08/03 10:09:25;;;;;;;23.83;9.23;;;;;;;27.33;50.04;101408.53;5093118;28;20100;-60
2022/08/03 10:11:51;;;;;;;23.08;8.98;;;;;;;27.47;49.14;101407.72;5092311;28;20100;-60
2022/08/03 10:14:17;;;;;;;22.83;8.98;;;;;;;27.33;48.38;101380.97;5092864;28;20066;-62
2022/08/03 10:16:44;;;;;;;22.10;9.25;;;;;;;27.45;47.45;101404.47;5092824;28;20051;-60
2022/08/03 10:19:09;;;;;;;21.75;8.30;;;;;;;27.46;48.15;101404.09;5092213;28;20113;-60
2022/08/03 10:21:37;;;;;;;24.42;9.05;;;;;;;27.41;47.67;101390.25;5092151;28;20415;-61
2022/08/03 10:24:05;;;;;;;24.63;9.38;;;;;;;27.57;47.39;101403.25;5092086;28;20031;-60
2022/08/03 10:26:37;;;;;;;23.60;9.52;;;;;;;27.54;47.60;101391.47;5091751;28;20028;-60
2022/08/03 10:29:07;;;;;;;22.80;9.25;;;;;;;27.63;47.83;101399.53;5092094;28;20181;-60
2022/08/03 10:31:43;;;;;;;23.52;9.27;;;;;;;27.61;47.81;101392.66;5092937;28;20020;-61
2022/08/03 10:34:17;;;;;;;27.60;9.65;;;;;;;27.62;47.19;101380.91;5091250;28;20032;-60
2022/08/03 10:36:44;;;;;;;21.98;9.05;;;;;;;27.77;46.88;101395.03;5092190;28;20039;-61
2022/08/03 10:39:12;;;;;;;23.02;9.32;;;;;;;27.80;46.87;101392.16;5092167;28;20024;-61
2022/08/03 10:41:41;;;;;;;24.23;9.25;;;;;;;27.83;45.07;101391.34;5091731;28;20024;-61
2022/08/03 10:44:16;;;;;;;23.25;10.27;;;;;;;27.87;45.78;101380.75;5053439;28;1102462;-62
2022/08/03 10:46:43;;;;;;;22.80;9.43;;;;;;;28.10;46.18;101384.34;5092688;28;20032;-61
2022/08/03 10:49:13;;;;;;;24.67;9.45;;;;;;;28.26;45.75;101384.66;5092691;28;20024;-61
2022/08/03 10:51:40;;;;;;;25.80;9.23;;;;;;;28.30;44.88;101376.88;5092775;28;20024;-61
2022/08/03 10:54:05;;;;;;;22.95;9.15;;;;;;;28.40;44.93;101374.38;5092881;28;20461;-61
2022/08/03 10:59:15;;;;;;;25.05;9.15;;;;;;;28.34;43.03;101356.94;5094232;28;20108;-62
2022/08/03 11:01:51;;;;;;;23.23;8.75;;;;;;;28.43;44.21;101365.84;5092819;28;20443;-62
2022/08/03 11:04:18;;;;;;;22.70;9.13;;;;;;;28.44;43.80;101367.44;5092270;28;20077;-61
2022/08/03 11:06:45;;;;;;;22.73;9.23;;;;;;;28.46;43.18;101367.81;5092532;28;20050;-61
2022/08/03 11:09:10;;;;;;;25.17;9.38;;;;;;;28.48;43.75;101350.34;5092403;28;20029;-61
2022/08/03 11:11:37;;;;;;;24.00;9.67;;;;;;;28.55;42.54;101361.66;5091860;28;20115;-61
2022/08/03 11:14:09;;;;;;;21.98;9.15;;;;;;;28.62;43.17;101360.81;5092628;28;20431;-61
2022/08/03 11:16:48;;;;;;;21.27;8.77;;;;;;;28.66;42.37;101358.72;5091984;28;20032;-61
2022/08/03 11:19:16;;;;;;;20.52;8.45;;;;;;;28.76;42.50;101351.38;5091494;28;20369;-61
2022/08/03 11:21:50;;;;;;;24.13;9.68;;;;;;;28.83;42.55;101351.28;5091915;28;20027;-61